Monday, June 24, 2019, 6:56 PM CDT
Back to Local

KT82, Fredericksburg, Gillespie County Airport

Location: Fredericksburg, TX, United States Lat: 30.244
Local Time: 6:56 PM CDT (23:56 GMT) Lon: -98.909
Time Zone: US/Central Elev: 1696 ft

Show me the last for .
Show Decoded

2019-06-24 18:35 METAR KT82 242335Z AUTO 14005KT 10SM CLR 27/15 A2988 RMK AO2 T02660151 =
2019-06-24 18:15 METAR KT82 242315Z AUTO 16009KT 10SM CLR 27/15 A2989 RMK AO2 LTG DSNT NW
                 T02680146 =
2019-06-24 17:55 METAR KT82 242255Z AUTO 15006KT 10SM CLR 27/16 A2990 RMK AO2 T02710155 =
2019-06-24 17:35 METAR KT82 242235Z AUTO 15003KT 10SM CLR 27/16 A2991 RMK AO2 T02720162 =
2019-06-24 17:15 METAR KT82 242215Z AUTO 16006KT 10SM CLR 27/17 A2993 RMK AO2 LTG DSNT SE
                 T02680166 =
2019-06-24 16:55 METAR KT82 242155Z AUTO 15005KT 10SM CLR 27/16 A2994 RMK AO2 LTG DSNT SE
                 T02660163 =
2019-06-24 16:35 METAR KT82 242135Z AUTO 15008KT 10SM CLR 27/18 A2994 RMK AO2 LTG DSNT SE AND NW
                 T02700176 =
2019-06-24 16:15 METAR KT82 242115Z AUTO 14007KT 110V170 10SM CLR 27/19 A2994 RMK AO2 LTG DSNT SE
                 T02710186 =
2019-06-24 15:55 METAR KT82 242055Z AUTO 16009G14KT 10SM CLR 27/19 A2994 RMK AO2 LTG DSNT SE
                 T02720192 =
2019-06-24 15:35 METAR KT82 242035Z AUTO 16008G15KT 10SM CLR 27/19 A2994 RMK AO2 LTG DSNT E AND
                 SE T02700194 =
2019-06-24 15:15 METAR KT82 242015Z AUTO 13007G14KT 100V170 10SM CLR 28/20 A2994 RMK AO2 LTG DSNT
                 SE AND S T02750201 =
2019-06-24 14:55 METAR KT82 241955Z AUTO 16012KT 10SM CLR 28/20 A2994 RMK AO2 LTG DSNT SE AND S
                 T02750198 =
2019-06-24 14:35 METAR KT82 241935Z AUTO 14010KT 10SM VCTS SCT030 27/20 A2994 RMK AO2 LTG DSNT E
                 THRU S T02710195 =
2019-06-24 14:15 METAR KT82 241915Z AUTO 15008KT 10SM VCTS SCT028 SCT035 27/20 A2994 RMK AO2 LTG
                 DSNT E THRU S T02660200 =
2019-06-24 13:55 METAR KT82 241855Z AUTO 13006KT 10SM VCTS SCT028 SCT035 26/20 A2996 RMK AO2 LTG
                 DSNT E THRU S T02550199 =
2019-06-24 13:35 METAR KT82 241835Z AUTO 09008KT 10SM VCTS SCT012 SCT022 25/20 A2996 RMK AO2 LTG
                 DSNT E AND SE T02510200 =
2019-06-24 13:15 METAR KT82 241815Z AUTO 10009G14KT 070V130 10SM SCT012 BKN020 BKN039 24/20 A2997
                 RMK AO2 LTG DSNT E AND SE T02440201 =
2019-06-24 12:55 METAR KT82 241755Z AUTO 09007KT 10SM VCTS BKN020 BKN025 BKN034 23/20 A2997 RMK
                 AO2 LTG DSNT E AND SE 60007 T02320197 10268 20215 =
2019-06-24 12:35 METAR KT82 241735Z AUTO 11011G17KT 080V140 10SM SCT009 BKN014 OVC020 22/19 A2998
                 RMK AO2 LTG DSNT E AND SE T02170192 =
2019-06-24 12:15 METAR KT82 241715Z AUTO 09015G21KT 7SM VCTS SCT007 BKN011 BKN022 24/20 A2997 RMK
                 AO2 LTG DSNT E T02370202 =
2019-06-24 11:55 METAR KT82 241655Z AUTO 12006KT 5SM BR SCT007 BKN024 OVC036 26/24 A2996 RMK AO2
                 LTG DSNT E P0007 T02570238 =
2019-06-24 11:35 METAR KT82 241635Z AUTO 14005KT 2 1/2SM VCTSDZ SCT009 BKN016 OVC028 25/24 A2997
                 RMK AO2 LTG DSNT NE AND E P0007 T02500235 =
2019-06-24 11:15 METAR KT82 241615Z AUTO 13003KT 2 1/2SM RA BKN011 OVC018 25/23 A2996 RMK AO2 LTG
                 DSNT NE AND E P0006 T02480228 =
2019-06-24 10:55 METAR KT82 241555Z AUTO 00000KT 7SM -RA OVC013 26/22 A2996 RMK AO2 LTG DSNT NE
                 T02550223 =
2019-06-24 10:35 METAR KT82 241535Z AUTO 15005KT 7SM OVC015 26/22 A2995 RMK AO2 T02600221 =
2019-06-24 10:15 METAR KT82 241515Z AUTO 16009KT 10SM OVC013 27/22 A2994 RMK AO2 LTG DSNT NE
                 T02650222 =
2019-06-24 09:55 METAR KT82 241455Z AUTO 16008G14KT 10SM OVC013 26/22 A2994 RMK AO2 LTG DSNT NE
                 T02590221 =
2019-06-24 09:35 METAR KT82 241435Z AUTO 16008KT 10SM BKN015 OVC020 26/22 A2994 RMK AO2 LTG DSNT
                 NE T02620222 =
2019-06-24 09:15 METAR KT82 241415Z AUTO 17007KT 10SM OVC015 27/22 A2993 RMK AO2 T02650222 =
2019-06-24 08:55 METAR KT82 241355Z AUTO 16007KT 10SM BKN015 27/22 A2993 RMK AO2 LTG DSNT NE
                 T02670223 =
2019-06-24 08:35 METAR KT82 241335Z AUTO 17009KT 10SM SCT013 27/22 A2992 RMK AO2 LTG DSNT NE
                 T02650222 =
2019-06-24 08:15 METAR KT82 241315Z AUTO 17008KT 10SM SCT011 26/22 A2991 RMK AO2 T02590223 =
2019-06-24 07:55 METAR KT82 241255Z AUTO 16006KT 7SM CLR 26/23 A2991 RMK AO2 T02550225 =
2019-06-24 07:35 METAR KT82 241235Z AUTO 16005KT 10SM SCT030 25/22 A2991 RMK AO2 T02500223 =
2019-06-24 07:15 METAR KT82 241215Z AUTO 14003KT 7SM SCT022 BKN028 25/22 A2991 RMK AO2 T02490222
                 =
2019-06-24 06:55 METAR KT82 241155Z AUTO 13004KT 7SM SCT016 BKN024 BKN028 25/22 A2990 RMK AO2
                 T02480221 10265 20248 =
2019-06-24 06:35 METAR KT82 241135Z AUTO 09004KT 10SM BKN014 OVC023 25/22 A2990 RMK AO2 T02500221
                 =
2019-06-24 06:15 METAR KT82 241115Z AUTO 09003KT 10SM OVC014 25/22 A2988 RMK AO2 LTG DSNT E
                 T02510221 =
2019-06-24 05:55 METAR KT82 241055Z AUTO 00000KT 10SM OVC014 25/22 A2987 RMK AO2 LTG DSNT E
                 T02520221 =
2019-06-24 05:35 METAR KT82 241035Z AUTO 13004KT 10SM OVC014 25/22 A2986 RMK AO2 LTG DSNT NE
                 T02520221 =
2019-06-24 05:15 METAR KT82 241015Z AUTO 14004KT 10SM OVC014 26/22 A2986 RMK AO2 LTG DSNT E
                 T02550221 =
2019-06-24 04:55 METAR KT82 240955Z AUTO 15003KT 10SM OVC014 26/22 A2986 RMK AO2 LTG DSNT NE
                 T02550221 =
2019-06-24 04:35 METAR KT82 240935Z AUTO 16004KT 10SM VCTS OVC014 26/22 A2985 RMK AO2 LTG DSNT NE
                 T02560221 =
2019-06-24 04:15 METAR KT82 240915Z AUTO 17006KT 10SM OVC014 26/22 A2985 RMK AO2 LTG DSNT NE
                 T02580223 =
2019-06-24 03:55 METAR KT82 240855Z AUTO 18008KT 10SM OVC014 26/23 A2985 RMK AO2 LTG DSNT NE
                 T02580225 =
2019-06-24 03:35 METAR KT82 240835Z AUTO 18006KT 10SM OVC014 26/23 A2985 RMK AO2 LTG DSNT NE
                 T02600225 =
2019-06-24 03:15 METAR KT82 240815Z AUTO 19008G15KT 10SM OVC014 26/23 A2984 RMK AO2 LTG DSNT NE
                 T02610225 =
2019-06-24 02:55 METAR KT82 240755Z AUTO 20006G14KT 10SM OVC014 26/23 A2985 RMK AO2 LTG DSNT NE
                 T02620226 =
2019-06-24 02:35 METAR KT82 240735Z AUTO 20008KT 10SM OVC014 26/23 A2984 RMK AO2 T02620228 =
2019-06-24 02:15 METAR KT82 240715Z AUTO 21008G14KT 10SM OVC014 26/23 A2984 RMK AO2 LTG DSNT NE
                 T02630228 =
2019-06-24 01:55 METAR KT82 240655Z AUTO 20011G17KT 10SM OVC014 27/23 A2984 RMK AO2 LTG DSNT NE
                 T02650230 =
2019-06-24 01:35 METAR KT82 240635Z AUTO 20008KT 10SM OVC014 26/23 A2985 RMK AO2 T02640230 =
2019-06-24 01:15 METAR KT82 240615Z AUTO 20005KT 10SM OVC014 27/23 A2986 RMK AO2 T02650230 =
2019-06-24 00:55 METAR KT82 240555Z AUTO 19005KT 10SM OVC014 27/23 A2987 RMK AO2 T02650230 10293
                 20258 403150245 =
2019-06-24 00:35 METAR KT82 240535Z AUTO 18009KT 10SM OVC016 27/23 A2987 RMK AO2 T02670231 =
2019-06-24 00:15 METAR KT82 240515Z AUTO 17006KT 10SM OVC016 27/23 A2986 RMK AO2 T02680232 =
2019-06-23 23:55 METAR KT82 240455Z AUTO 18005KT 10SM OVC016 27/23 A2987 RMK AO2 T02690233 =
2019-06-23 23:35 METAR KT82 240435Z AUTO 18006KT 10SM BKN016 BKN023 OVC028 27/23 A2986 RMK AO2
                 T02670232 =
2019-06-23 23:15 METAR KT82 240415Z AUTO 17006KT 10SM OVC020 27/23 A2986 RMK AO2 T02660227 =
2019-06-23 22:55 METAR KT82 240355Z AUTO 18004KT 10SM BKN020 BKN032 27/22 A2985 RMK AO2 T02650221
                 =
2019-06-23 22:35 METAR KT82 240335Z AUTO 00000KT 10SM CLR 27/22 A2984 RMK AO2 T02650216 =
2019-06-23 22:15 METAR KT82 240315Z AUTO 15004KT 10SM CLR 26/22 A2983 RMK AO2 T02620215 =
2019-06-23 21:55 METAR KT82 240255Z AUTO 00000KT 10SM CLR 26/22 A2983 RMK AO2 T02590216 =
2019-06-23 21:35 METAR KT82 240235Z AUTO 00000KT 10SM CLR 27/22 A2983 RMK AO2 T02650215 =
2019-06-23 21:15 METAR KT82 240215Z AUTO 00000KT 10SM CLR 27/22 A2982 RMK AO2 T02700217 =
2019-06-23 20:55 METAR KT82 240155Z AUTO 19003KT 10SM CLR 27/22 A2982 RMK AO2 T02710216 =
2019-06-23 20:35 METAR KT82 240135Z AUTO 20003KT 10SM CLR 28/22 A2981 RMK AO2 T02800216 =
2019-06-23 20:15 METAR KT82 240115Z AUTO 20004KT 10SM CLR 29/22 A2980 RMK AO2 T02850217 =
2019-06-23 19:55 METAR KT82 240055Z AUTO 19004KT 10SM CLR 28/22 A2979 RMK AO2 T02830216 =
2019-06-23 19:35 METAR KT82 240035Z AUTO 20004KT 10SM SCT040 29/21 A2981 RMK AO2 T02850213 =
2019-06-23 19:15 METAR KT82 240015Z AUTO 21006KT 10SM SCT040 29/21 A2981 RMK AO2 T02900212 =

Support USWX by starting your Amazon purchase here.